sensor_id;sensor_type;location;lat;lon;timestamp;temperature;humidity
21568;DHT22;10944;42.590;12.630;2023-04-03T00:00:49;11.80;89.70
21568;DHT22;10944;42.590;12.630;2023-04-03T00:03:16;11.80;89.90
21568;DHT22;10944;42.590;12.630;2023-04-03T00:05:41;11.80;90.10
21568;DHT22;10944;42.590;12.630;2023-04-03T00:08:08;11.70;90.30
21568;DHT22;10944;42.590;12.630;2023-04-03T00:10:35;11.70;90.10
21568;DHT22;10944;42.590;12.630;2023-04-03T00:13:03;11.70;90.00
21568;DHT22;10944;42.590;12.630;2023-04-03T00:15:28;11.80;89.50
21568;DHT22;10944;42.590;12.630;2023-04-03T00:17:54;11.80;90.00
21568;DHT22;10944;42.590;12.630;2023-04-03T00:20:20;11.80;89.50
21568;DHT22;10944;42.590;12.630;2023-04-03T00:22:45;11.80;89.90
21568;DHT22;10944;42.590;12.630;2023-04-03T00:25:11;11.80;89.70
21568;DHT22;10944;42.590;12.630;2023-04-03T00:27:38;11.80;89.80
21568;DHT22;10944;42.590;12.630;2023-04-03T00:30:06;11.70;90.10
21568;DHT22;10944;42.590;12.630;2023-04-03T00:32:32;11.70;90.10
21568;DHT22;10944;42.590;12.630;2023-04-03T00:34:58;11.70;90.10
21568;DHT22;10944;42.590;12.630;2023-04-03T00:37:24;11.70;89.90
21568;DHT22;10944;42.590;12.630;2023-04-03T00:39:50;11.80;90.00
21568;DHT22;10944;42.590;12.630;2023-04-03T00:42:16;11.80;89.30
21568;DHT22;10944;42.590;12.630;2023-04-03T00:47:11;11.70;90.20
21568;DHT22;10944;42.590;12.630;2023-04-03T00:49:38;11.70;90.30
21568;DHT22;10944;42.590;12.630;2023-04-03T00:52:06;11.70;90.20
21568;DHT22;10944;42.590;12.630;2023-04-03T00:54:36;11.70;90.60
21568;DHT22;10944;42.590;12.630;2023-04-03T00:57:03;11.60;90.20
21568;DHT22;10944;42.590;12.630;2023-04-03T00:59:34;11.70;90.00
21568;DHT22;10944;42.590;12.630;2023-04-03T01:02:01;11.80;90.00
21568;DHT22;10944;42.590;12.630;2023-04-03T01:04:41;11.90;89.70
21568;DHT22;10944;42.590;12.630;2023-04-03T01:07:14;11.90;89.50
21568;DHT22;10944;42.590;12.630;2023-04-03T01:09:41;11.90;89.40
21568;DHT22;10944;42.590;12.630;2023-04-03T01:12:14;11.90;88.80
21568;DHT22;10944;42.590;12.630;2023-04-03T01:14:42;11.90;89.00
21568;DHT22;10944;42.590;12.630;2023-04-03T01:25:26;12.20;87.10
21568;DHT22;10944;42.590;12.630;2023-04-03T01:27:52;12.30;87.10
21568;DHT22;10944;42.590;12.630;2023-04-03T01:30:20;12.20;88.00
21568;DHT22;10944;42.590;12.630;2023-04-03T01:32:46;12.10;88.80
21568;DHT22;10944;42.590;12.630;2023-04-03T01:35:13;12.10;89.60
21568;DHT22;10944;42.590;12.630;2023-04-03T01:37:38;12.00;89.70
21568;DHT22;10944;42.590;12.630;2023-04-03T01:40:04;12.00;90.10
21568;DHT22;10944;42.590;12.630;2023-04-03T01:42:31;11.90;90.10
21568;DHT22;10944;42.590;12.630;2023-04-03T01:44:57;11.90;90.10
21568;DHT22;10944;42.590;12.630;2023-04-03T01:47:22;12.00;90.20
21568;DHT22;10944;42.590;12.630;2023-04-03T01:49:48;12.10;89.80
21568;DHT22;10944;42.590;12.630;2023-04-03T01:52:14;12.10;90.30
21568;DHT22;10944;42.590;12.630;2023-04-03T01:54:40;12.00;90.60
21568;DHT22;10944;42.590;12.630;2023-04-03T01:57:05;12.00;90.60
21568;DHT22;10944;42.590;12.630;2023-04-03T01:59:31;11.90;90.80
21568;DHT22;10944;42.590;12.630;2023-04-03T02:01:57;11.90;91.10
21568;DHT22;10944;42.590;12.630;2023-04-03T02:04:23;11.80;91.10
21568;DHT22;10944;42.590;12.630;2023-04-03T02:06:48;11.80;91.10
21568;DHT22;10944;42.590;12.630;2023-04-03T02:09:14;11.80;91.10
21568;DHT22;10944;42.590;12.630;2023-04-03T02:11:40;11.80;91.10
21568;DHT22;10944;42.590;12.630;2023-04-03T02:14:06;11.90;91.20
21568;DHT22;10944;42.590;12.630;2023-04-03T02:16:31;11.80;91.40
21568;DHT22;10944;42.590;12.630;2023-04-03T02:18:57;11.80;91.50
21568;DHT22;10944;42.590;12.630;2023-04-03T02:21:23;11.90;91.30
21568;DHT22;10944;42.590;12.630;2023-04-03T02:23:49;11.90;91.60
21568;DHT22;10944;42.590;12.630;2023-04-03T02:26:15;11.80;91.70
21568;DHT22;10944;42.590;12.630;2023-04-03T02:28:42;12.00;91.50
21568;DHT22;10944;42.590;12.630;2023-04-03T02:31:08;11.90;91.70
21568;DHT22;10944;42.590;12.630;2023-04-03T02:33:35;11.80;92.30
21568;DHT22;10944;42.590;12.630;2023-04-03T02:36:05;11.80;92.00
21568;DHT22;10944;42.590;12.630;2023-04-03T02:38:31;11.80;92.00
21568;DHT22;10944;42.590;12.630;2023-04-03T02:41:05;11.80;91.90
21568;DHT22;10944;42.590;12.630;2023-04-03T02:43:31;11.80;92.10
21568;DHT22;10944;42.590;12.630;2023-04-03T02:45:56;11.70;92.00
21568;DHT22;10944;42.590;12.630;2023-04-03T02:48:22;11.80;92.00
21568;DHT22;10944;42.590;12.630;2023-04-03T02:50:48;11.80;92.00
21568;DHT22;10944;42.590;12.630;2023-04-03T02:53:14;11.80;92.00
21568;DHT22;10944;42.590;12.630;2023-04-03T02:55:40;12.00;91.40
21568;DHT22;10944;42.590;12.630;2023-04-03T02:58:07;12.10;91.30
21568;DHT22;10944;42.590;12.630;2023-04-03T03:00:33;12.10;91.30
21568;DHT22;10944;42.590;12.630;2023-04-03T03:02:58;12.00;91.70
21568;DHT22;10944;42.590;12.630;2023-04-03T03:05:24;11.90;91.60
21568;DHT22;10944;42.590;12.630;2023-04-03T03:07:50;12.10;91.40
21568;DHT22;10944;42.590;12.630;2023-04-03T03:10:15;12.10;91.50
21568;DHT22;10944;42.590;12.630;2023-04-03T03:12:41;12.00;91.20
21568;DHT22;10944;42.590;12.630;2023-04-03T03:15:07;12.00;91.30
21568;DHT22;10944;42.590;12.630;2023-04-03T03:17:33;12.00;91.40
21568;DHT22;10944;42.590;12.630;2023-04-03T03:19:59;12.00;91.60
21568;DHT22;10944;42.590;12.630;2023-04-03T03:22:25;12.00;91.70
21568;DHT22;10944;42.590;12.630;2023-04-03T03:24:51;11.80;92.00
21568;DHT22;10944;42.590;12.630;2023-04-03T03:27:16;11.70;92.00
21568;DHT22;10944;42.590;12.630;2023-04-03T03:29:42;11.70;92.10
21568;DHT22;10944;42.590;12.630;2023-04-03T03:32:08;11.70;92.20
21568;DHT22;10944;42.590;12.630;2023-04-03T03:34:34;11.80;92.20
21568;DHT22;10944;42.590;12.630;2023-04-03T03:37:00;11.80;92.00
21568;DHT22;10944;42.590;12.630;2023-04-03T03:39:26;11.80;92.40
21568;DHT22;10944;42.590;12.630;2023-04-03T03:41:52;11.70;92.60
21568;DHT22;10944;42.590;12.630;2023-04-03T03:44:19;11.60;92.50
21568;DHT22;10944;42.590;12.630;2023-04-03T03:46:45;11.70;92.20
21568;DHT22;10944;42.590;12.630;2023-04-03T03:49:11;11.70;92.30
21568;DHT22;10944;42.590;12.630;2023-04-03T03:51:38;11.60;92.40
21568;DHT22;10944;42.590;12.630;2023-04-03T03:54:04;11.70;92.30
21568;DHT22;10944;42.590;12.630;2023-04-03T03:56:30;11.60;92.70
21568;DHT22;10944;42.590;12.630;2023-04-03T03:58:56;11.70;92.20
21568;DHT22;10944;42.590;12.630;2023-04-03T04:01:23;11.60;92.60
21568;DHT22;10944;42.590;12.630;2023-04-03T04:03:48;11.70;92.30
21568;DHT22;10944;42.590;12.630;2023-04-03T04:06:14;11.80;92.10
21568;DHT22;10944;42.590;12.630;2023-04-03T04:08:40;11.90;91.80
21568;DHT22;10944;42.590;12.630;2023-04-03T04:11:07;11.90;92.00
21568;DHT22;10944;42.590;12.630;2023-04-03T04:13:33;12.00;91.90
21568;DHT22;10944;42.590;12.630;2023-04-03T04:15:59;11.90;92.20
21568;DHT22;10944;42.590;12.630;2023-04-03T04:18:24;11.80;92.40
21568;DHT22;10944;42.590;12.630;2023-04-03T04:20:50;11.80;92.10
21568;DHT22;10944;42.590;12.630;2023-04-03T04:23:17;11.80;92.60
21568;DHT22;10944;42.590;12.630;2023-04-03T04:25:47;11.70;92.60
21568;DHT22;10944;42.590;12.630;2023-04-03T04:28:14;11.70;92.70
21568;DHT22;10944;42.590;12.630;2023-04-03T04:30:40;11.70;92.90
21568;DHT22;10944;42.590;12.630;2023-04-03T04:33:06;11.70;92.80
21568;DHT22;10944;42.590;12.630;2023-04-03T04:35:33;11.70;92.90
21568;DHT22;10944;42.590;12.630;2023-04-03T04:37:58;11.60;93.30
21568;DHT22;10944;42.590;12.630;2023-04-03T04:40:25;11.50;93.30
21568;DHT22;10944;42.590;12.630;2023-04-03T04:42:51;11.70;92.90
21568;DHT22;10944;42.590;12.630;2023-04-03T04:45:17;11.70;93.20
21568;DHT22;10944;42.590;12.630;2023-04-03T04:47:43;11.70;93.00
21568;DHT22;10944;42.590;12.630;2023-04-03T04:50:09;11.60;93.10
21568;DHT22;10944;42.590;12.630;2023-04-03T04:52:35;11.60;93.00
21568;DHT22;10944;42.590;12.630;2023-04-03T04:55:00;11.80;92.70
21568;DHT22;10944;42.590;12.630;2023-04-03T04:57:26;12.00;92.30
21568;DHT22;10944;42.590;12.630;2023-04-03T04:59:52;12.00;92.40
21568;DHT22;10944;42.590;12.630;2023-04-03T05:02:17;11.90;92.70
21568;DHT22;10944;42.590;12.630;2023-04-03T05:04:43;11.80;93.00
21568;DHT22;10944;42.590;12.630;2023-04-03T05:07:09;11.70;93.00
21568;DHT22;10944;42.590;12.630;2023-04-03T05:09:35;11.80;92.30
21568;DHT22;10944;42.590;12.630;2023-04-03T05:12:01;12.10;92.00
21568;DHT22;10944;42.590;12.630;2023-04-03T05:14:28;12.00;92.20
21568;DHT22;10944;42.590;12.630;2023-04-03T05:16:54;12.20;91.60
21568;DHT22;10944;42.590;12.630;2023-04-03T05:19:23;12.30;91.80
21568;DHT22;10944;42.590;12.630;2023-04-03T05:21:48;12.20;92.10
21568;DHT22;10944;42.590;12.630;2023-04-03T05:24:15;12.10;91.90
21568;DHT22;10944;42.590;12.630;2023-04-03T05:26:42;12.20;91.30
21568;DHT22;10944;42.590;12.630;2023-04-03T05:29:08;12.20;91.90
21568;DHT22;10944;42.590;12.630;2023-04-03T05:31:34;12.10;92.00
21568;DHT22;10944;42.590;12.630;2023-04-03T05:33:59;12.20;91.70
21568;DHT22;10944;42.590;12.630;2023-04-03T05:36:25;12.30;91.60
21568;DHT22;10944;42.590;12.630;2023-04-03T05:38:52;12.30;91.90
21568;DHT22;10944;42.590;12.630;2023-04-03T05:41:18;12.20;91.90
21568;DHT22;10944;42.590;12.630;2023-04-03T05:43:43;12.20;92.20
21568;DHT22;10944;42.590;12.630;2023-04-03T05:46:15;12.30;91.60
21568;DHT22;10944;42.590;12.630;2023-04-03T05:48:41;12.40;91.40
21568;DHT22;10944;42.590;12.630;2023-04-03T05:51:17;12.40;91.60
21568;DHT22;10944;42.590;12.630;2023-04-03T05:53:43;12.50;91.50
21568;DHT22;10944;42.590;12.630;2023-04-03T05:56:10;12.50;91.80
21568;DHT22;10944;42.590;12.630;2023-04-03T05:58:36;12.70;91.40
21568;DHT22;10944;42.590;12.630;2023-04-03T06:01:02;12.70;91.00
21568;DHT22;10944;42.590;12.630;2023-04-03T06:03:28;12.80;91.00
21568;DHT22;10944;42.590;12.630;2023-04-03T06:05:53;12.80;91.60
21568;DHT22;10944;42.590;12.630;2023-04-03T06:08:19;12.90;91.30
21568;DHT22;10944;42.590;12.630;2023-04-03T06:10:45;12.90;91.10
21568;DHT22;10944;42.590;12.630;2023-04-03T06:13:11;13.00;90.80
21568;DHT22;10944;42.590;12.630;2023-04-03T06:15:37;13.10;90.60
21568;DHT22;10944;42.590;12.630;2023-04-03T06:18:04;13.20;90.50
21568;DHT22;10944;42.590;12.630;2023-04-03T06:20:29;13.10;90.90
21568;DHT22;10944;42.590;12.630;2023-04-03T06:22:56;13.00;91.50
21568;DHT22;10944;42.590;12.630;2023-04-03T06:25:22;12.90;91.60
21568;DHT22;10944;42.590;12.630;2023-04-03T06:27:48;13.00;91.70
21568;DHT22;10944;42.590;12.630;2023-04-03T06:30:14;13.10;91.30
21568;DHT22;10944;42.590;12.630;2023-04-03T06:32:40;13.20;90.90
21568;DHT22;10944;42.590;12.630;2023-04-03T06:35:06;13.30;90.60
21568;DHT22;10944;42.590;12.630;2023-04-03T06:37:32;13.30;90.30
21568;DHT22;10944;42.590;12.630;2023-04-03T06:39:58;13.20;91.10
21568;DHT22;10944;42.590;12.630;2023-04-03T06:42:25;13.10;90.40
21568;DHT22;10944;42.590;12.630;2023-04-03T06:44:51;13.20;89.70
21568;DHT22;10944;42.590;12.630;2023-04-03T06:47:17;13.20;90.70
21568;DHT22;10944;42.590;12.630;2023-04-03T06:49:43;13.30;90.30
21568;DHT22;10944;42.590;12.630;2023-04-03T06:52:10;13.40;90.30
21568;DHT22;10944;42.590;12.630;2023-04-03T06:54:37;13.40;90.00
21568;DHT22;10944;42.590;12.630;2023-04-03T06:57:03;13.40;90.00
21568;DHT22;10944;42.590;12.630;2023-04-03T06:59:29;13.40;90.20
21568;DHT22;10944;42.590;12.630;2023-04-03T07:01:55;13.40;90.30
21568;DHT22;10944;42.590;12.630;2023-04-03T07:04:21;13.50;91.30
21568;DHT22;10944;42.590;12.630;2023-04-03T07:06:47;13.60;89.30
21568;DHT22;10944;42.590;12.630;2023-04-03T07:09:14;13.80;89.50
21568;DHT22;10944;42.590;12.630;2023-04-03T07:11:40;14.10;88.70
21568;DHT22;10944;42.590;12.630;2023-04-03T07:14:06;14.10;88.10
21568;DHT22;10944;42.590;12.630;2023-04-03T07:16:34;14.20;89.50
21568;DHT22;10944;42.590;12.630;2023-04-03T07:19:00;14.30;87.70
21568;DHT22;10944;42.590;12.630;2023-04-03T07:21:27;14.40;86.40
21568;DHT22;10944;42.590;12.630;2023-04-03T07:23:53;14.50;86.90
21568;DHT22;10944;42.590;12.630;2023-04-03T07:26:19;14.70;87.20
21568;DHT22;10944;42.590;12.630;2023-04-03T07:28:46;14.80;87.40
21568;DHT22;10944;42.590;12.630;2023-04-03T07:31:14;15.00;89.40
21568;DHT22;10944;42.590;12.630;2023-04-03T07:33:42;15.00;88.20
21568;DHT22;10944;42.590;12.630;2023-04-03T07:36:09;14.90;86.60
21568;DHT22;10944;42.590;12.630;2023-04-03T07:38:36;15.00;87.20
21568;DHT22;10944;42.590;12.630;2023-04-03T07:41:02;15.00;86.80
21568;DHT22;10944;42.590;12.630;2023-04-03T07:43:28;15.10;87.70
21568;DHT22;10944;42.590;12.630;2023-04-03T07:45:54;15.20;88.20
21568;DHT22;10944;42.590;12.630;2023-04-03T07:48:25;15.30;87.40
21568;DHT22;10944;42.590;12.630;2023-04-03T07:50:52;15.10;87.60
21568;DHT22;10944;42.590;12.630;2023-04-03T07:53:18;14.80;87.00
21568;DHT22;10944;42.590;12.630;2023-04-03T07:55:46;14.80;89.60
21568;DHT22;10944;42.590;12.630;2023-04-03T07:58:16;14.90;86.20
21568;DHT22;10944;42.590;12.630;2023-04-03T08:00:42;14.90;88.00
21568;DHT22;10944;42.590;12.630;2023-04-03T08:03:10;14.80;86.40
21568;DHT22;10944;42.590;12.630;2023-04-03T08:05:37;14.50;87.00
21568;DHT22;10944;42.590;12.630;2023-04-03T08:08:04;14.30;86.40
21568;DHT22;10944;42.590;12.630;2023-04-03T08:10:30;14.30;87.90
21568;DHT22;10944;42.590;12.630;2023-04-03T08:12:56;14.20;87.50
21568;DHT22;10944;42.590;12.630;2023-04-03T08:15:22;14.10;87.00
21568;DHT22;10944;42.590;12.630;2023-04-03T08:17:47;14.20;86.80
21568;DHT22;10944;42.590;12.630;2023-04-03T08:20:13;14.40;87.90
21568;DHT22;10944;42.590;12.630;2023-04-03T08:22:39;14.60;86.80
21568;DHT22;10944;42.590;12.630;2023-04-03T08:25:05;14.70;87.60
21568;DHT22;10944;42.590;12.630;2023-04-03T08:27:31;14.90;86.90
21568;DHT22;10944;42.590;12.630;2023-04-03T08:29:57;14.90;85.40
21568;DHT22;10944;42.590;12.630;2023-04-03T08:32:23;15.10;84.90
21568;DHT22;10944;42.590;12.630;2023-04-03T08:34:49;15.00;85.20
21568;DHT22;10944;42.590;12.630;2023-04-03T08:37:15;15.10;84.40
21568;DHT22;10944;42.590;12.630;2023-04-03T08:39:42;15.20;83.00
21568;DHT22;10944;42.590;12.630;2023-04-03T08:42:26;15.10;82.20
21568;DHT22;10944;42.590;12.630;2023-04-03T08:45:13;15.10;82.90
21568;DHT22;10944;42.590;12.630;2023-04-03T08:50:20;15.40;83.40
21568;DHT22;10944;42.590;12.630;2023-04-03T08:52:52;15.20;81.20
21568;DHT22;10944;42.590;12.630;2023-04-03T08:55:43;15.40;82.40
21568;DHT22;10944;42.590;12.630;2023-04-03T08:58:15;15.20;81.10
21568;DHT22;10944;42.590;12.630;2023-04-03T09:00:51;15.20;82.50
21568;DHT22;10944;42.590;12.630;2023-04-03T09:03:21;15.20;81.10
21568;DHT22;10944;42.590;12.630;2023-04-03T09:13:43;14.70;83.00
21568;DHT22;10944;42.590;12.630;2023-04-03T09:17:08;14.90;83.20
21568;DHT22;10944;42.590;12.630;2023-04-03T09:21:38;15.30;83.10
21568;DHT22;10944;42.590;12.630;2023-04-03T09:24:06;15.20;80.30
21568;DHT22;10944;42.590;12.630;2023-04-03T09:26:56;15.30;81.40
21568;DHT22;10944;42.590;12.630;2023-04-03T09:29:25;15.30;82.40
21568;DHT22;10944;42.590;12.630;2023-04-03T09:31:59;15.30;80.30
21568;DHT22;10944;42.590;12.630;2023-04-03T09:34:35;15.50;81.60
21568;DHT22;10944;42.590;12.630;2023-04-03T09:37:04;15.30;79.40
21568;DHT22;10944;42.590;12.630;2023-04-03T09:39:51;15.90;80.60
21568;DHT22;10944;42.590;12.630;2023-04-03T09:42:22;16.20;81.50
21568;DHT22;10944;42.590;12.630;2023-04-03T09:45:04;16.60;79.30
21568;DHT22;10944;42.590;12.630;2023-04-03T09:47:35;16.40;78.30
21568;DHT22;10944;42.590;12.630;2023-04-03T09:52:44;16.50;78.60
21568;DHT22;10944;42.590;12.630;2023-04-03T09:55:22;16.20;77.90
21568;DHT22;10944;42.590;12.630;2023-04-03T09:57:53;16.00;79.10
21568;DHT22;10944;42.590;12.630;2023-04-03T10:02:50;15.90;80.70
21568;DHT22;10944;42.590;12.630;2023-04-03T10:10:45;15.20;81.00
21568;DHT22;10944;42.590;12.630;2023-04-03T10:16:08;15.40;80.70
21568;DHT22;10944;42.590;12.630;2023-04-03T10:24:10;15.90;79.70
21568;DHT22;10944;42.590;12.630;2023-04-03T10:38:32;16.60;80.50
21568;DHT22;10944;42.590;12.630;2023-04-03T10:54:11;15.50;80.30
21568;DHT22;10944;42.590;12.630;2023-04-03T10:56:57;15.60;79.00
21568;DHT22;10944;42.590;12.630;2023-04-03T11:02:32;15.30;78.40
21568;DHT22;10944;42.590;12.630;2023-04-03T11:05:06;15.40;78.70
21568;DHT22;10944;42.590;12.630;2023-04-03T11:07:40;15.50;78.00
21568;DHT22;10944;42.590;12.630;2023-04-03T11:10:22;15.80;76.50
21568;DHT22;10944;42.590;12.630;2023-04-03T11:12:54;15.90;78.10
21568;DHT22;10944;42.590;12.630;2023-04-03T11:15:24;15.90;75.70
21568;DHT22;10944;42.590;12.630;2023-04-03T11:18:09;15.90;74.90
21568;DHT22;10944;42.590;12.630;2023-04-03T11:20:37;16.00;73.70
21568;DHT22;10944;42.590;12.630;2023-04-03T11:25:53;16.00;73.80
21568;DHT22;10944;42.590;12.630;2023-04-03T11:28:19;16.00;72.40
21568;DHT22;10944;42.590;12.630;2023-04-03T11:36:21;16.00;73.00
21568;DHT22;10944;42.590;12.630;2023-04-03T11:38:49;15.60;73.60
21568;DHT22;10944;42.590;12.630;2023-04-03T11:41:17;15.50;75.40
21568;DHT22;10944;42.590;12.630;2023-04-03T11:44:00;15.60;73.90
21568;DHT22;10944;42.590;12.630;2023-04-03T11:46:49;15.60;75.30
21568;DHT22;10944;42.590;12.630;2023-04-03T11:49:51;15.50;73.10
21568;DHT22;10944;42.590;12.630;2023-04-03T12:19:13;15.80;71.00
21568;DHT22;10944;42.590;12.630;2023-04-03T12:24:30;16.20;73.20
21568;DHT22;10944;42.590;12.630;2023-04-03T12:30:05;16.20;71.80
21568;DHT22;10944;42.590;12.630;2023-04-03T12:32:51;16.20;70.80
21568;DHT22;10944;42.590;12.630;2023-04-03T12:36:06;16.00;70.40
21568;DHT22;10944;42.590;12.630;2023-04-03T12:38:56;16.00;70.90
21568;DHT22;10944;42.590;12.630;2023-04-03T12:41:30;16.00;72.10
21568;DHT22;10944;42.590;12.630;2023-04-03T12:46:37;16.10;68.90
21568;DHT22;10944;42.590;12.630;2023-04-03T12:51:57;15.80;70.00
21568;DHT22;10944;42.590;12.630;2023-04-03T12:54:37;15.90;70.00
21568;DHT22;10944;42.590;12.630;2023-04-03T12:57:16;15.60;71.70
21568;DHT22;10944;42.590;12.630;2023-04-03T12:59:42;15.50;71.00
21568;DHT22;10944;42.590;12.630;2023-04-03T13:02:32;15.30;71.00
21568;DHT22;10944;42.590;12.630;2023-04-03T13:05:06;15.40;72.40
21568;DHT22;10944;42.590;12.630;2023-04-03T13:07:35;15.60;70.90
21568;DHT22;10944;42.590;12.630;2023-04-03T13:12:33;16.10;72.40
21568;DHT22;10944;42.590;12.630;2023-04-03T13:15:10;16.30;69.80
21568;DHT22;10944;42.590;12.630;2023-04-03T13:17:39;16.10;71.70
21568;DHT22;10944;42.590;12.630;2023-04-03T13:20:16;16.20;71.60
21568;DHT22;10944;42.590;12.630;2023-04-03T13:22:52;16.30;69.10
21568;DHT22;10944;42.590;12.630;2023-04-03T13:25:20;16.50;72.70
21568;DHT22;10944;42.590;12.630;2023-04-03T13:27:46;16.10;69.20
21568;DHT22;10944;42.590;12.630;2023-04-03T13:30:29;15.90;70.80
21568;DHT22;10944;42.590;12.630;2023-04-03T13:32:57;15.90;69.40
21568;DHT22;10944;42.590;12.630;2023-04-03T13:38:00;15.90;71.10
21568;DHT22;10944;42.590;12.630;2023-04-03T13:40:26;16.00;71.40
21568;DHT22;10944;42.590;12.630;2023-04-03T13:43:20;15.80;71.50
21568;DHT22;10944;42.590;12.630;2023-04-03T13:46:05;15.90;72.00
21568;DHT22;10944;42.590;12.630;2023-04-03T13:48:48;15.60;71.00
21568;DHT22;10944;42.590;12.630;2023-04-03T13:53:53;15.30;71.80
21568;DHT22;10944;42.590;12.630;2023-04-03T13:59:04;15.40;71.70
21568;DHT22;10944;42.590;12.630;2023-04-03T14:04:30;15.60;71.70
21568;DHT22;10944;42.590;12.630;2023-04-03T14:06:56;15.30;71.30
21568;DHT22;10944;42.590;12.630;2023-04-03T14:09:24;15.30;71.40
21568;DHT22;10944;42.590;12.630;2023-04-03T14:11:53;15.30;71.90
21568;DHT22;10944;42.590;12.630;2023-04-03T14:14:31;15.40;71.50
21568;DHT22;10944;42.590;12.630;2023-04-03T14:17:00;15.30;71.90
21568;DHT22;10944;42.590;12.630;2023-04-03T14:19:31;15.40;71.60
21568;DHT22;10944;42.590;12.630;2023-04-03T14:22:00;15.50;72.50
21568;DHT22;10944;42.590;12.630;2023-04-03T14:24:26;15.30;71.80
21568;DHT22;10944;42.590;12.630;2023-04-03T14:26:54;15.10;72.60
21568;DHT22;10944;42.590;12.630;2023-04-03T14:29:21;15.10;71.10
21568;DHT22;10944;42.590;12.630;2023-04-03T14:31:49;14.80;71.90
21568;DHT22;10944;42.590;12.630;2023-04-03T14:34:15;14.80;71.60
21568;DHT22;10944;42.590;12.630;2023-04-03T14:36:43;14.70;71.20
21568;DHT22;10944;42.590;12.630;2023-04-03T14:39:15;14.40;70.60
21568;DHT22;10944;42.590;12.630;2023-04-03T14:41:42;14.60;71.00
21568;DHT22;10944;42.590;12.630;2023-04-03T14:44:09;14.80;70.60
21568;DHT22;10944;42.590;12.630;2023-04-03T14:46:37;14.60;69.70
21568;DHT22;10944;42.590;12.630;2023-04-03T14:49:06;14.50;71.90
21568;DHT22;10944;42.590;12.630;2023-04-03T14:51:37;14.50;70.80
21568;DHT22;10944;42.590;12.630;2023-04-03T14:54:03;14.50;70.50
21568;DHT22;10944;42.590;12.630;2023-04-03T14:56:30;14.50;71.10
21568;DHT22;10944;42.590;12.630;2023-04-03T14:58:59;14.40;69.40
21568;DHT22;10944;42.590;12.630;2023-04-03T15:01:26;14.50;70.90
21568;DHT22;10944;42.590;12.630;2023-04-03T15:03:52;14.40;70.00
21568;DHT22;10944;42.590;12.630;2023-04-03T15:06:17;14.20;70.20
21568;DHT22;10944;42.590;12.630;2023-04-03T15:08:44;14.20;70.20
21568;DHT22;10944;42.590;12.630;2023-04-03T15:11:11;14.10;70.40
21568;DHT22;10944;42.590;12.630;2023-04-03T15:13:38;14.10;69.70
21568;DHT22;10944;42.590;12.630;2023-04-03T15:16:12;14.10;71.10
21568;DHT22;10944;42.590;12.630;2023-04-03T15:18:39;14.20;69.70
21568;DHT22;10944;42.590;12.630;2023-04-03T15:21:05;14.00;69.00
21568;DHT22;10944;42.590;12.630;2023-04-03T15:23:31;14.10;71.50
21568;DHT22;10944;42.590;12.630;2023-04-03T15:25:57;14.10;69.60
21568;DHT22;10944;42.590;12.630;2023-04-03T15:28:31;14.00;69.20
21568;DHT22;10944;42.590;12.630;2023-04-03T15:30:58;14.10;70.40
21568;DHT22;10944;42.590;12.630;2023-04-03T15:33:25;13.90;70.20
21568;DHT22;10944;42.590;12.630;2023-04-03T15:35:51;13.90;69.20
21568;DHT22;10944;42.590;12.630;2023-04-03T15:38:17;13.80;68.80
21568;DHT22;10944;42.590;12.630;2023-04-03T15:40:42;13.80;69.30
21568;DHT22;10944;42.590;12.630;2023-04-03T15:43:09;13.80;70.10
21568;DHT22;10944;42.590;12.630;2023-04-03T15:45:36;13.60;68.50
21568;DHT22;10944;42.590;12.630;2023-04-03T15:48:04;13.50;68.60
21568;DHT22;10944;42.590;12.630;2023-04-03T15:50:32;13.70;71.60
21568;DHT22;10944;42.590;12.630;2023-04-03T15:52:58;13.60;70.10
21568;DHT22;10944;42.590;12.630;2023-04-03T15:55:25;13.60;69.60
21568;DHT22;10944;42.590;12.630;2023-04-03T15:57:52;13.60;69.20
21568;DHT22;10944;42.590;12.630;2023-04-03T16:00:18;13.40;69.60
21568;DHT22;10944;42.590;12.630;2023-04-03T16:02:46;13.30;69.30
21568;DHT22;10944;42.590;12.630;2023-04-03T16:05:13;13.20;69.50
21568;DHT22;10944;42.590;12.630;2023-04-03T16:07:41;13.30;70.20
21568;DHT22;10944;42.590;12.630;2023-04-03T16:10:08;13.30;71.00
21568;DHT22;10944;42.590;12.630;2023-04-03T16:12:34;13.40;70.70
21568;DHT22;10944;42.590;12.630;2023-04-03T16:15:00;13.30;69.30
21568;DHT22;10944;42.590;12.630;2023-04-03T16:17:27;13.20;70.60
21568;DHT22;10944;42.590;12.630;2023-04-03T16:19:54;13.20;70.40
21568;DHT22;10944;42.590;12.630;2023-04-03T16:22:21;13.20;71.30
21568;DHT22;10944;42.590;12.630;2023-04-03T16:24:49;13.10;70.40
21568;DHT22;10944;42.590;12.630;2023-04-03T16:27:15;13.00;70.10
21568;DHT22;10944;42.590;12.630;2023-04-03T16:29:41;12.90;70.50
21568;DHT22;10944;42.590;12.630;2023-04-03T16:32:07;12.80;70.60
21568;DHT22;10944;42.590;12.630;2023-04-03T16:34:33;12.80;70.70
21568;DHT22;10944;42.590;12.630;2023-04-03T16:36:59;12.80;71.30
21568;DHT22;10944;42.590;12.630;2023-04-03T16:39:26;12.70;70.00
21568;DHT22;10944;42.590;12.630;2023-04-03T16:41:52;12.80;71.90
21568;DHT22;10944;42.590;12.630;2023-04-03T16:44:17;12.70;70.40
21568;DHT22;10944;42.590;12.630;2023-04-03T16:46:43;12.60;69.50
21568;DHT22;10944;42.590;12.630;2023-04-03T16:49:09;12.50;71.20
21568;DHT22;10944;42.590;12.630;2023-04-03T16:51:35;12.50;70.40
21568;DHT22;10944;42.590;12.630;2023-04-03T16:54:01;12.50;71.40
21568;DHT22;10944;42.590;12.630;2023-04-03T16:56:26;12.50;70.00
21568;DHT22;10944;42.590;12.630;2023-04-03T16:58:53;12.40;71.00
21568;DHT22;10944;42.590;12.630;2023-04-03T17:01:21;12.40;71.60
21568;DHT22;10944;42.590;12.630;2023-04-03T17:03:47;12.30;70.00
21568;DHT22;10944;42.590;12.630;2023-04-03T17:06:18;12.20;70.20
21568;DHT22;10944;42.590;12.630;2023-04-03T17:08:45;12.10;70.30
21568;DHT22;10944;42.590;12.630;2023-04-03T17:11:12;12.10;70.70
21568;DHT22;10944;42.590;12.630;2023-04-03T17:13:37;12.00;70.30
21568;DHT22;10944;42.590;12.630;2023-04-03T17:16:05;11.90;70.40
21568;DHT22;10944;42.590;12.630;2023-04-03T17:18:33;11.90;71.50
21568;DHT22;10944;42.590;12.630;2023-04-03T17:21:00;11.80;70.40
21568;DHT22;10944;42.590;12.630;2023-04-03T17:23:27;11.80;71.40
21568;DHT22;10944;42.590;12.630;2023-04-03T17:25:56;11.70;70.90
21568;DHT22;10944;42.590;12.630;2023-04-03T17:28:22;11.80;71.00
21568;DHT22;10944;42.590;12.630;2023-04-03T17:31:02;11.70;71.20
21568;DHT22;10944;42.590;12.630;2023-04-03T17:33:28;11.60;72.20